createdAt,value
2022-12-01T00:10:08.669Z,92.95
2022-12-01T00:20:14.017Z,93.13
2022-12-01T00:30:17.509Z,92.97
2022-12-01T00:40:21.650Z,93.08
2022-12-01T00:50:24.256Z,93.42
2022-12-01T01:00:28.431Z,93.34
2022-12-01T01:10:31.060Z,93.28
2022-12-01T01:20:35.286Z,93.58
2022-12-01T01:30:40.494Z,93.76
2022-12-01T01:40:48.353Z,93.59
2022-12-01T01:50:51.067Z,93.64
2022-12-01T02:00:55.583Z,93.33
2022-12-01T02:11:15.150Z,92.76
2022-12-01T02:21:37.092Z,92.80
2022-12-01T02:31:48.498Z,92.87
2022-12-01T02:41:55.862Z,92.51
2022-12-01T02:52:00.690Z,92.77
2022-12-01T03:02:13.050Z,92.77
2022-12-01T03:12:24.810Z,92.60
2022-12-01T03:22:34.419Z,93.00
2022-12-01T03:32:42.967Z,92.81
2022-12-01T03:42:49.774Z,93.01
2022-12-01T03:53:03.429Z,92.91
2022-12-01T04:03:07.043Z,93.25
2022-12-01T04:13:16.622Z,93.28
2022-12-01T04:23:33.190Z,93.46
2022-12-01T04:33:37.195Z,93.61
2022-12-01T04:43:40.209Z,93.51
2022-12-01T04:53:44.244Z,93.59
2022-12-01T05:03:50.095Z,93.54
2022-12-01T05:13:54.150Z,93.40
2022-12-01T05:23:56.787Z,93.64
2022-12-01T05:34:00.858Z,93.77
2022-12-01T05:44:03.498Z,93.66
2022-12-01T05:54:07.581Z,93.87
2022-12-01T06:04:10.308Z,93.52
2022-12-01T06:14:14.326Z,93.34
2022-12-01T06:24:16.958Z,93.45
2022-12-01T06:34:21.165Z,93.48
2022-12-01T06:44:24.245Z,93.55
2022-12-01T06:54:28.234Z,93.58
2022-12-01T07:04:31.505Z,93.55
2022-12-01T07:14:35.822Z,93.48
2022-12-01T07:24:38.424Z,93.49
2022-12-01T07:34:42.859Z,93.39
2022-12-01T07:44:45.559Z,93.34
2022-12-01T07:54:49.582Z,93.22
2022-12-01T08:04:52.351Z,93.17
2022-12-01T08:14:56.312Z,93.04
2022-12-01T08:24:58.952Z,92.95
2022-12-01T08:35:03.230Z,92.72
2022-12-01T08:45:06.519Z,92.56
2022-12-01T08:55:11.963Z,92.27
2022-12-01T09:05:14.871Z,92.30
2022-12-01T09:15:18.844Z,92.05
2022-12-01T09:25:21.735Z,91.29
2022-12-01T09:35:25.731Z,91.74
2022-12-01T09:45:31.352Z,91.40
2022-12-01T09:55:36.692Z,91.35
2022-12-01T10:06:10.244Z,91.23
2022-12-01T10:16:12.100Z,91.12
2022-12-01T10:26:19.414Z,90.21
2022-12-01T10:36:24.504Z,90.18
2022-12-01T10:46:33.289Z,89.42
2022-12-01T10:56:41.416Z,88.60
2022-12-01T11:06:50.849Z,88.47
2022-12-01T11:16:55.959Z,88.57
2022-12-01T11:27:00.033Z,88.83
2022-12-01T11:37:08.608Z,88.89
2022-12-01T11:47:23.080Z,89.21
2022-12-01T11:57:34.819Z,89.30
2022-12-01T12:07:50.758Z,88.62
2022-12-01T12:18:25.435Z,88.43
2022-12-01T12:28:41.386Z,87.44
2022-12-01T12:39:03.061Z,86.90
2022-12-01T12:49:22.896Z,86.43
2022-12-01T12:59:31.168Z,86.20
2022-12-01T13:09:37.162Z,85.45
2022-12-01T13:19:43.851Z,85.58
2022-12-01T13:29:48.735Z,85.41
2022-12-01T13:39:55.566Z,85.34
2022-12-01T13:49:59.962Z,85.53
2022-12-01T14:00:23.548Z,85.60
2022-12-01T14:10:29.971Z,85.90
2022-12-01T14:20:38.332Z,85.81
2022-12-01T14:31:05.622Z,85.69
2022-12-01T14:41:19.636Z,85.74
2022-12-01T14:51:28.672Z,85.73
2022-12-01T15:01:35.970Z,85.81
2022-12-01T15:11:49.397Z,86.22
2022-12-01T15:21:53.382Z,86.37
2022-12-01T15:31:57.995Z,86.63
2022-12-01T15:42:03.034Z,87.09
2022-12-01T15:52:08.676Z,87.38
2022-12-01T16:02:27.061Z,87.29
2022-12-01T16:12:32.846Z,87.43
2022-12-01T16:22:36.921Z,87.57
2022-12-01T16:32:41.342Z,87.73
2022-12-01T16:42:46.102Z,87.33
2022-12-01T16:52:48.855Z,87.47
2022-12-01T17:02:53.579Z,87.12
2022-12-01T17:12:56.269Z,87.22
2022-12-01T17:23:00.560Z,87.55
2022-12-01T17:33:03.412Z,87.43
2022-12-01T17:43:09.303Z,87.39
2022-12-01T17:53:12.018Z,87.18
2022-12-01T18:03:16.144Z,86.89
2022-12-01T18:13:21.222Z,86.47
2022-12-01T18:23:25.806Z,85.85
2022-12-01T18:33:28.506Z,85.19
2022-12-01T18:43:33.599Z,85.17
2022-12-01T18:53:36.678Z,83.49
2022-12-01T19:03:40.707Z,83.28
2022-12-01T19:13:43.799Z,82.80
2022-12-01T19:23:48.756Z,83.24
2022-12-01T19:33:51.798Z,83.33
2022-12-01T19:43:56.290Z,83.32
2022-12-01T19:53:59.428Z,83.65
2022-12-01T20:04:03.969Z,83.58
2022-12-01T20:14:08.079Z,83.60
2022-12-01T20:24:14.432Z,83.16
2022-12-01T20:34:20.481Z,84.02
2022-12-01T20:44:24.552Z,84.48
2022-12-01T20:54:29.231Z,84.61
2022-12-01T21:04:33.692Z,84.84
2022-12-01T21:14:40.091Z,84.72
2022-12-01T21:24:45.079Z,84.58
2022-12-01T21:34:49.279Z,84.73
2022-12-01T21:44:53.806Z,84.72
2022-12-01T21:54:58.411Z,84.90
2022-12-01T22:05:02.638Z,85.36
2022-12-01T22:15:35.210Z,85.50
2022-12-01T22:25:39.683Z,85.71
2022-12-01T22:35:45.025Z,84.74
2022-12-01T22:45:50.931Z,84.77
2022-12-01T22:55:56.814Z,85.12
2022-12-01T23:06:00.802Z,84.97
2022-12-01T23:16:03.543Z,84.97
2022-12-01T23:26:09.980Z,84.83
2022-12-01T23:36:16.255Z,84.97
2022-12-01T23:46:23.565Z,84.89
2022-12-01T23:56:28.957Z,85.13
